sensor_id;sensor_type;location;lat;lon;timestamp;P1;durP1;ratioP1;P2;durP2;ratioP2
19255;SDS011;9762;52.490;13.410;2023-03-20T00:02:10;5.10;;;3.73;;
19255;SDS011;9762;52.490;13.410;2023-03-20T00:04:43;5.03;;;3.70;;
19255;SDS011;9762;52.490;13.410;2023-03-20T00:07:08;4.37;;;3.47;;
19255;SDS011;9762;52.490;13.410;2023-03-20T00:09:36;3.90;;;3.60;;
19255;SDS011;9762;52.490;13.410;2023-03-20T00:12:02;4.30;;;3.53;;
19255;SDS011;9762;52.490;13.410;2023-03-20T00:14:29;4.13;;;3.73;;
19255;SDS011;9762;52.490;13.410;2023-03-20T00:16:55;3.53;;;3.23;;
19255;SDS011;9762;52.490;13.410;2023-03-20T00:19:22;4.20;;;3.90;;
19255;SDS011;9762;52.490;13.410;2023-03-20T00:21:50;3.57;;;3.27;;
19255;SDS011;9762;52.490;13.410;2023-03-20T00:24:17;3.93;;;3.60;;
19255;SDS011;9762;52.490;13.410;2023-03-20T00:26:44;4.87;;;3.40;;
19255;SDS011;9762;52.490;13.410;2023-03-20T00:29:14;4.13;;;3.73;;
19255;SDS011;9762;52.490;13.410;2023-03-20T00:31:52;3.90;;;3.60;;
19255;SDS011;9762;52.490;13.410;2023-03-20T00:34:20;5.27;;;4.00;;
19255;SDS011;9762;52.490;13.410;2023-03-20T00:36:48;5.77;;;4.03;;
19255;SDS011;9762;52.490;13.410;2023-03-20T00:39:14;3.60;;;3.30;;
19255;SDS011;9762;52.490;13.410;2023-03-20T00:47:03;5.33;;;3.80;;
19255;SDS011;9762;52.490;13.410;2023-03-20T00:49:35;4.70;;;4.27;;
19255;SDS011;9762;52.490;13.410;2023-03-20T00:52:02;5.10;;;4.20;;
19255;SDS011;9762;52.490;13.410;2023-03-20T00:54:29;4.00;;;3.60;;
19255;SDS011;9762;52.490;13.410;2023-03-20T00:59:51;4.67;;;3.77;;
19255;SDS011;9762;52.490;13.410;2023-03-20T01:02:17;3.57;;;3.37;;
19255;SDS011;9762;52.490;13.410;2023-03-20T01:04:45;4.37;;;3.93;;
19255;SDS011;9762;52.490;13.410;2023-03-20T01:07:12;4.90;;;4.00;;
19255;SDS011;9762;52.490;13.410;2023-03-20T01:09:39;6.03;;;3.57;;
19255;SDS011;9762;52.490;13.410;2023-03-20T01:12:05;3.70;;;3.50;;
19255;SDS011;9762;52.490;13.410;2023-03-20T01:14:31;4.30;;;3.20;;
19255;SDS011;9762;52.490;13.410;2023-03-20T01:16:58;4.07;;;3.77;;
19255;SDS011;9762;52.490;13.410;2023-03-20T01:19:23;5.40;;;3.60;;
19255;SDS011;9762;52.490;13.410;2023-03-20T01:21:49;3.50;;;3.20;;
19255;SDS011;9762;52.490;13.410;2023-03-20T01:24:15;4.13;;;3.73;;
19255;SDS011;9762;52.490;13.410;2023-03-20T01:26:41;6.17;;;3.47;;
19255;SDS011;9762;52.490;13.410;2023-03-20T01:29:24;7.73;;;3.90;;
19255;SDS011;9762;52.490;13.410;2023-03-20T01:31:51;4.37;;;4.07;;
19255;SDS011;9762;52.490;13.410;2023-03-20T01:34:18;3.90;;;3.57;;
19255;SDS011;9762;52.490;13.410;2023-03-20T01:36:52;7.10;;;4.07;;
19255;SDS011;9762;52.490;13.410;2023-03-20T01:39:19;4.07;;;3.77;;
19255;SDS011;9762;52.490;13.410;2023-03-20T01:41:48;3.70;;;3.40;;
19255;SDS011;9762;52.490;13.410;2023-03-20T01:44:23;4.00;;;3.67;;
19255;SDS011;9762;52.490;13.410;2023-03-20T01:46:54;3.93;;;3.60;;
19255;SDS011;9762;52.490;13.410;2023-03-20T01:51:49;3.83;;;3.60;;
19255;SDS011;9762;52.490;13.410;2023-03-20T01:59:19;4.03;;;3.53;;
19255;SDS011;9762;52.490;13.410;2023-03-20T02:01:52;3.90;;;3.60;;
19255;SDS011;9762;52.490;13.410;2023-03-20T02:04:19;6.07;;;3.93;;
19255;SDS011;9762;52.490;13.410;2023-03-20T02:06:49;3.90;;;3.57;;
19255;SDS011;9762;52.490;13.410;2023-03-20T02:09:15;4.30;;;3.90;;
19255;SDS011;9762;52.490;13.410;2023-03-20T02:11:41;5.47;;;3.40;;
19255;SDS011;9762;52.490;13.410;2023-03-20T02:14:09;3.97;;;3.67;;
19255;SDS011;9762;52.490;13.410;2023-03-20T02:16:35;5.13;;;4.03;;
19255;SDS011;9762;52.490;13.410;2023-03-20T02:19:01;3.70;;;3.40;;
19255;SDS011;9762;52.490;13.410;2023-03-20T02:27:38;3.93;;;3.70;;
19255;SDS011;9762;52.490;13.410;2023-03-20T02:47:13;4.47;;;3.37;;
19255;SDS011;9762;52.490;13.410;2023-03-20T02:55:31;5.27;;;3.80;;
19255;SDS011;9762;52.490;13.410;2023-03-20T02:58:15;5.77;;;4.10;;
19255;SDS011;9762;52.490;13.410;2023-03-20T03:00:56;6.07;;;4.37;;
19255;SDS011;9762;52.490;13.410;2023-03-20T03:03:32;6.77;;;3.70;;
19255;SDS011;9762;52.490;13.410;2023-03-20T03:06:09;8.80;;;3.53;;
19255;SDS011;9762;52.490;13.410;2023-03-20T03:08:48;4.10;;;3.70;;
19255;SDS011;9762;52.490;13.410;2023-03-20T03:11:18;4.97;;;3.90;;
19255;SDS011;9762;52.490;13.410;2023-03-20T03:13:46;3.87;;;3.57;;
19255;SDS011;9762;52.490;13.410;2023-03-20T03:16:16;4.60;;;3.70;;
19255;SDS011;9762;52.490;13.410;2023-03-20T03:18:46;4.20;;;3.90;;
19255;SDS011;9762;52.490;13.410;2023-03-20T03:21:15;4.23;;;3.93;;
19255;SDS011;9762;52.490;13.410;2023-03-20T03:23:46;4.97;;;4.17;;
19255;SDS011;9762;52.490;13.410;2023-03-20T03:26:29;4.23;;;3.93;;
19255;SDS011;9762;52.490;13.410;2023-03-20T03:29:01;3.80;;;3.50;;
19255;SDS011;9762;52.490;13.410;2023-03-20T03:31:34;4.23;;;3.80;;
19255;SDS011;9762;52.490;13.410;2023-03-20T03:34:02;3.80;;;3.60;;
19255;SDS011;9762;52.490;13.410;2023-03-20T03:41:51;5.30;;;4.27;;
19255;SDS011;9762;52.490;13.410;2023-03-20T03:44:48;4.60;;;4.20;;
19255;SDS011;9762;52.490;13.410;2023-03-20T03:47:24;4.90;;;4.50;;
19255;SDS011;9762;52.490;13.410;2023-03-20T03:50:01;4.60;;;4.13;;
19255;SDS011;9762;52.490;13.410;2023-03-20T03:52:34;4.70;;;4.00;;
19255;SDS011;9762;52.490;13.410;2023-03-20T03:55:03;4.30;;;4.00;;
19255;SDS011;9762;52.490;13.410;2023-03-20T03:57:40;4.50;;;4.20;;
19255;SDS011;9762;52.490;13.410;2023-03-20T04:00:12;5.73;;;5.20;;
19255;SDS011;9762;52.490;13.410;2023-03-20T04:02:41;5.93;;;5.10;;
19255;SDS011;9762;52.490;13.410;2023-03-20T04:05:09;5.60;;;5.10;;
19255;SDS011;9762;52.490;13.410;2023-03-20T04:07:35;9.40;;;4.53;;
19255;SDS011;9762;52.490;13.410;2023-03-20T04:10:02;5.63;;;5.17;;
19255;SDS011;9762;52.490;13.410;2023-03-20T04:12:32;4.93;;;4.60;;
19255;SDS011;9762;52.490;13.410;2023-03-20T04:14:58;5.67;;;5.10;;
19255;SDS011;9762;52.490;13.410;2023-03-20T04:17:24;5.67;;;5.27;;
19255;SDS011;9762;52.490;13.410;2023-03-20T04:19:50;5.37;;;4.97;;
19255;SDS011;9762;52.490;13.410;2023-03-20T04:22:15;5.33;;;5.00;;
19255;SDS011;9762;52.490;13.410;2023-03-20T04:24:41;5.53;;;4.80;;
19255;SDS011;9762;52.490;13.410;2023-03-20T04:27:07;5.13;;;4.83;;
19255;SDS011;9762;52.490;13.410;2023-03-20T04:29:32;5.17;;;4.73;;
19255;SDS011;9762;52.490;13.410;2023-03-20T04:31:58;5.73;;;5.20;;
19255;SDS011;9762;52.490;13.410;2023-03-20T04:34:23;7.23;;;5.57;;
19255;SDS011;9762;52.490;13.410;2023-03-20T04:36:49;5.90;;;5.40;;
19255;SDS011;9762;52.490;13.410;2023-03-20T04:39:15;5.97;;;5.50;;
19255;SDS011;9762;52.490;13.410;2023-03-20T04:41:41;6.70;;;5.67;;
19255;SDS011;9762;52.490;13.410;2023-03-20T04:44:06;5.70;;;5.30;;
19255;SDS011;9762;52.490;13.410;2023-03-20T04:46:32;6.60;;;5.90;;
19255;SDS011;9762;52.490;13.410;2023-03-20T04:48:57;5.40;;;5.00;;
19255;SDS011;9762;52.490;13.410;2023-03-20T04:51:23;7.20;;;5.87;;
19255;SDS011;9762;52.490;13.410;2023-03-20T04:53:49;6.30;;;5.80;;
19255;SDS011;9762;52.490;13.410;2023-03-20T04:56:15;6.10;;;5.60;;
19255;SDS011;9762;52.490;13.410;2023-03-20T04:58:40;7.20;;;5.87;;
19255;SDS011;9762;52.490;13.410;2023-03-20T05:01:06;6.47;;;5.83;;
19255;SDS011;9762;52.490;13.410;2023-03-20T05:03:31;5.83;;;5.33;;
19255;SDS011;9762;52.490;13.410;2023-03-20T05:05:57;7.50;;;6.10;;
19255;SDS011;9762;52.490;13.410;2023-03-20T05:08:23;6.37;;;5.77;;
19255;SDS011;9762;52.490;13.410;2023-03-20T05:10:49;6.43;;;5.93;;
19255;SDS011;9762;52.490;13.410;2023-03-20T05:13:15;8.60;;;6.50;;
19255;SDS011;9762;52.490;13.410;2023-03-20T05:15:41;6.77;;;6.17;;
19255;SDS011;9762;52.490;13.410;2023-03-20T05:18:07;7.63;;;6.73;;
19255;SDS011;9762;52.490;13.410;2023-03-20T05:20:33;7.50;;;6.80;;
19255;SDS011;9762;52.490;13.410;2023-03-20T05:23:00;7.33;;;6.63;;
19255;SDS011;9762;52.490;13.410;2023-03-20T05:25:26;8.77;;;6.83;;
19255;SDS011;9762;52.490;13.410;2023-03-20T05:27:52;7.93;;;7.10;;
19255;SDS011;9762;52.490;13.410;2023-03-20T05:30:18;7.37;;;6.63;;
19255;SDS011;9762;52.490;13.410;2023-03-20T05:32:44;8.90;;;6.80;;
19255;SDS011;9762;52.490;13.410;2023-03-20T05:35:10;8.10;;;7.30;;
19255;SDS011;9762;52.490;13.410;2023-03-20T05:37:36;7.73;;;7.03;;
19255;SDS011;9762;52.490;13.410;2023-03-20T05:40:03;8.77;;;7.30;;
19255;SDS011;9762;52.490;13.410;2023-03-20T05:42:29;11.27;;;10.27;;
19255;SDS011;9762;52.490;13.410;2023-03-20T05:44:55;8.63;;;7.93;;
19255;SDS011;9762;52.490;13.410;2023-03-20T05:47:20;8.73;;;7.93;;
19255;SDS011;9762;52.490;13.410;2023-03-20T05:49:46;23.87;;;19.60;;
19255;SDS011;9762;52.490;13.410;2023-03-20T05:52:12;20.03;;;18.07;;
19255;SDS011;9762;52.490;13.410;2023-03-20T05:54:37;11.73;;;10.63;;
19255;SDS011;9762;52.490;13.410;2023-03-20T05:57:03;13.03;;;11.83;;
19255;SDS011;9762;52.490;13.410;2023-03-20T05:59:28;11.20;;;9.73;;
19255;SDS011;9762;52.490;13.410;2023-03-20T06:01:54;11.70;;;10.50;;
19255;SDS011;9762;52.490;13.410;2023-03-20T06:04:20;11.03;;;9.40;;
19255;SDS011;9762;52.490;13.410;2023-03-20T06:06:45;9.70;;;8.70;;
19255;SDS011;9762;52.490;13.410;2023-03-20T06:09:11;11.77;;;9.47;;
19255;SDS011;9762;52.490;13.410;2023-03-20T06:11:36;9.90;;;9.00;;
19255;SDS011;9762;52.490;13.410;2023-03-20T06:14:02;11.63;;;10.63;;
19255;SDS011;9762;52.490;13.410;2023-03-20T06:16:28;14.57;;;11.67;;
19255;SDS011;9762;52.490;13.410;2023-03-20T06:18:53;11.57;;;10.47;;
19255;SDS011;9762;52.490;13.410;2023-03-20T06:21:19;13.80;;;12.03;;
19255;SDS011;9762;52.490;13.410;2023-03-20T06:23:44;29.30;;;26.07;;
19255;SDS011;9762;52.490;13.410;2023-03-20T06:26:10;19.60;;;16.43;;
19255;SDS011;9762;52.490;13.410;2023-03-20T06:28:36;18.63;;;16.80;;
19255;SDS011;9762;52.490;13.410;2023-03-20T06:31:01;20.90;;;17.47;;
19255;SDS011;9762;52.490;13.410;2023-03-20T06:33:27;19.93;;;17.93;;
19255;SDS011;9762;52.490;13.410;2023-03-20T06:35:53;21.37;;;17.87;;
19255;SDS011;9762;52.490;13.410;2023-03-20T06:38:18;25.80;;;18.90;;
19255;SDS011;9762;52.490;13.410;2023-03-20T06:40:44;18.67;;;15.83;;
19255;SDS011;9762;52.490;13.410;2023-03-20T06:43:10;16.10;;;14.53;;
19255;SDS011;9762;52.490;13.410;2023-03-20T06:45:36;14.43;;;13.03;;
19255;SDS011;9762;52.490;13.410;2023-03-20T06:48:06;14.57;;;13.13;;
19255;SDS011;9762;52.490;13.410;2023-03-20T06:50:32;14.43;;;13.13;;
19255;SDS011;9762;52.490;13.410;2023-03-20T06:52:58;16.93;;;14.47;;
19255;SDS011;9762;52.490;13.410;2023-03-20T06:55:24;17.20;;;15.47;;
19255;SDS011;9762;52.490;13.410;2023-03-20T06:57:50;17.53;;;15.73;;
19255;SDS011;9762;52.490;13.410;2023-03-20T07:00:15;18.70;;;16.70;;
19255;SDS011;9762;52.490;13.410;2023-03-20T07:02:41;24.03;;;17.03;;
19255;SDS011;9762;52.490;13.410;2023-03-20T07:05:07;18.37;;;16.27;;
19255;SDS011;9762;52.490;13.410;2023-03-20T07:07:34;22.30;;;19.83;;
19255;SDS011;9762;52.490;13.410;2023-03-20T07:10:00;22.47;;;17.63;;
19255;SDS011;9762;52.490;13.410;2023-03-20T07:12:26;21.67;;;19.47;;
19255;SDS011;9762;52.490;13.410;2023-03-20T07:14:53;21.97;;;19.27;;
19255;SDS011;9762;52.490;13.410;2023-03-20T07:17:19;25.57;;;20.70;;
19255;SDS011;9762;52.490;13.410;2023-03-20T07:19:44;25.93;;;22.00;;
19255;SDS011;9762;52.490;13.410;2023-03-20T07:22:14;32.13;;;23.80;;
19255;SDS011;9762;52.490;13.410;2023-03-20T07:24:44;29.43;;;23.67;;
19255;SDS011;9762;52.490;13.410;2023-03-20T07:27:10;34.13;;;26.00;;
19255;SDS011;9762;52.490;13.410;2023-03-20T07:29:36;31.47;;;26.37;;
19255;SDS011;9762;52.490;13.410;2023-03-20T07:32:02;31.60;;;25.67;;
19255;SDS011;9762;52.490;13.410;2023-03-20T07:34:27;28.90;;;23.40;;
19255;SDS011;9762;52.490;13.410;2023-03-20T07:36:53;29.67;;;23.73;;
19255;SDS011;9762;52.490;13.410;2023-03-20T07:39:18;29.03;;;22.60;;
19255;SDS011;9762;52.490;13.410;2023-03-20T07:41:44;34.07;;;24.93;;
19255;SDS011;9762;52.490;13.410;2023-03-20T07:44:10;33.27;;;22.70;;
19255;SDS011;9762;52.490;13.410;2023-03-20T07:46:38;33.17;;;23.30;;
19255;SDS011;9762;52.490;13.410;2023-03-20T07:49:04;31.33;;;24.57;;
19255;SDS011;9762;52.490;13.410;2023-03-20T07:51:30;31.90;;;23.47;;
19255;SDS011;9762;52.490;13.410;2023-03-20T07:53:56;32.60;;;23.90;;
19255;SDS011;9762;52.490;13.410;2023-03-20T07:56:22;33.63;;;25.13;;
19255;SDS011;9762;52.490;13.410;2023-03-20T07:58:47;27.27;;;22.40;;
19255;SDS011;9762;52.490;13.410;2023-03-20T08:01:13;32.03;;;22.70;;
19255;SDS011;9762;52.490;13.410;2023-03-20T08:03:39;30.90;;;20.63;;
19255;SDS011;9762;52.490;13.410;2023-03-20T08:06:05;29.63;;;20.90;;
19255;SDS011;9762;52.490;13.410;2023-03-20T08:08:33;29.00;;;20.60;;
19255;SDS011;9762;52.490;13.410;2023-03-20T08:10:59;28.63;;;18.80;;
19255;SDS011;9762;52.490;13.410;2023-03-20T08:13:25;25.53;;;18.83;;
19255;SDS011;9762;52.490;13.410;2023-03-20T08:15:51;22.40;;;17.40;;
19255;SDS011;9762;52.490;13.410;2023-03-20T08:18:17;28.33;;;18.80;;
19255;SDS011;9762;52.490;13.410;2023-03-20T08:20:44;30.80;;;19.93;;
19255;SDS011;9762;52.490;13.410;2023-03-20T08:23:10;26.00;;;19.67;;
19255;SDS011;9762;52.490;13.410;2023-03-20T08:25:36;28.53;;;20.37;;
19255;SDS011;9762;52.490;13.410;2023-03-20T08:28:02;28.93;;;19.87;;
19255;SDS011;9762;52.490;13.410;2023-03-20T08:30:28;26.70;;;20.07;;
19255;SDS011;9762;52.490;13.410;2023-03-20T08:32:54;27.37;;;19.60;;
19255;SDS011;9762;52.490;13.410;2023-03-20T08:35:19;23.87;;;17.70;;
19255;SDS011;9762;52.490;13.410;2023-03-20T08:37:45;30.40;;;20.87;;
19255;SDS011;9762;52.490;13.410;2023-03-20T08:40:11;29.27;;;19.10;;
19255;SDS011;9762;52.490;13.410;2023-03-20T08:42:37;22.00;;;17.53;;
19255;SDS011;9762;52.490;13.410;2023-03-20T08:45:03;26.20;;;18.43;;
19255;SDS011;9762;52.490;13.410;2023-03-20T08:47:29;25.63;;;17.63;;
19255;SDS011;9762;52.490;13.410;2023-03-20T08:49:54;24.43;;;16.40;;
19255;SDS011;9762;52.490;13.410;2023-03-20T08:52:20;24.90;;;17.43;;
19255;SDS011;9762;52.490;13.410;2023-03-20T08:54:45;24.53;;;17.50;;
19255;SDS011;9762;52.490;13.410;2023-03-20T08:57:11;48.10;;;28.20;;
19255;SDS011;9762;52.490;13.410;2023-03-20T08:59:37;24.63;;;17.20;;
19255;SDS011;9762;52.490;13.410;2023-03-20T09:02:04;21.90;;;16.67;;
19255;SDS011;9762;52.490;13.410;2023-03-20T09:04:30;21.30;;;15.93;;
19255;SDS011;9762;52.490;13.410;2023-03-20T09:06:56;20.97;;;14.83;;
19255;SDS011;9762;52.490;13.410;2023-03-20T09:09:21;18.97;;;14.27;;
19255;SDS011;9762;52.490;13.410;2023-03-20T09:11:53;20.07;;;14.47;;
19255;SDS011;9762;52.490;13.410;2023-03-20T09:14:22;20.13;;;14.67;;
19255;SDS011;9762;52.490;13.410;2023-03-20T09:16:48;23.37;;;14.80;;
19255;SDS011;9762;52.490;13.410;2023-03-20T09:19:15;19.00;;;14.47;;
19255;SDS011;9762;52.490;13.410;2023-03-20T09:21:41;23.10;;;16.00;;
19255;SDS011;9762;52.490;13.410;2023-03-20T09:24:07;16.90;;;14.53;;
19255;SDS011;9762;52.490;13.410;2023-03-20T09:26:32;17.80;;;13.73;;
19255;SDS011;9762;52.490;13.410;2023-03-20T09:28:58;17.10;;;13.47;;
19255;SDS011;9762;52.490;13.410;2023-03-20T09:31:24;17.40;;;12.63;;
19255;SDS011;9762;52.490;13.410;2023-03-20T09:33:50;17.13;;;13.23;;
19255;SDS011;9762;52.490;13.410;2023-03-20T09:36:15;18.00;;;13.47;;
19255;SDS011;9762;52.490;13.410;2023-03-20T09:38:41;16.73;;;13.00;;
19255;SDS011;9762;52.490;13.410;2023-03-20T09:41:12;16.60;;;11.93;;
19255;SDS011;9762;52.490;13.410;2023-03-20T09:43:47;18.00;;;13.77;;
19255;SDS011;9762;52.490;13.410;2023-03-20T09:54:11;16.67;;;12.43;;
19255;SDS011;9762;52.490;13.410;2023-03-20T09:56:57;22.53;;;16.47;;
19255;SDS011;9762;52.490;13.410;2023-03-20T09:59:37;17.83;;;12.33;;
19255;SDS011;9762;52.490;13.410;2023-03-20T10:02:05;17.77;;;12.43;;
19255;SDS011;9762;52.490;13.410;2023-03-20T10:04:38;14.93;;;11.80;;
19255;SDS011;9762;52.490;13.410;2023-03-20T10:07:08;14.90;;;12.00;;
19255;SDS011;9762;52.490;13.410;2023-03-20T10:09:37;16.53;;;12.23;;
19255;SDS011;9762;52.490;13.410;2023-03-20T10:15:04;14.27;;;10.10;;
19255;SDS011;9762;52.490;13.410;2023-03-20T10:23:40;11.10;;;9.03;;
19255;SDS011;9762;52.490;13.410;2023-03-20T10:26:12;13.70;;;10.23;;
19255;SDS011;9762;52.490;13.410;2023-03-20T10:34:21;11.40;;;9.53;;
19255;SDS011;9762;52.490;13.410;2023-03-20T10:37:22;13.23;;;9.30;;
19255;SDS011;9762;52.490;13.410;2023-03-20T10:39:59;11.47;;;8.60;;
19255;SDS011;9762;52.490;13.410;2023-03-20T10:42:46;12.70;;;8.60;;
19255;SDS011;9762;52.490;13.410;2023-03-20T10:45:36;14.33;;;9.03;;
19255;SDS011;9762;52.490;13.410;2023-03-20T10:48:00;12.43;;;9.47;;
19255;SDS011;9762;52.490;13.410;2023-03-20T10:50:32;13.37;;;9.00;;
19255;SDS011;9762;52.490;13.410;2023-03-20T10:53:04;9.30;;;8.23;;
19255;SDS011;9762;52.490;13.410;2023-03-20T10:55:33;12.27;;;8.97;;
19255;SDS011;9762;52.490;13.410;2023-03-20T10:58:13;12.47;;;9.13;;
19255;SDS011;9762;52.490;13.410;2023-03-20T11:00:44;10.77;;;8.93;;
19255;SDS011;9762;52.490;13.410;2023-03-20T11:03:15;11.57;;;8.90;;
19255;SDS011;9762;52.490;13.410;2023-03-20T11:05:45;14.90;;;9.00;;
19255;SDS011;9762;52.490;13.410;2023-03-20T11:08:16;13.93;;;8.60;;
19255;SDS011;9762;52.490;13.410;2023-03-20T11:10:51;10.53;;;8.20;;
19255;SDS011;9762;52.490;13.410;2023-03-20T11:16:10;12.23;;;8.10;;
19255;SDS011;9762;52.490;13.410;2023-03-20T11:18:44;9.30;;;8.17;;
19255;SDS011;9762;52.490;13.410;2023-03-20T11:21:16;9.80;;;7.67;;
19255;SDS011;9762;52.490;13.410;2023-03-20T11:23:44;8.90;;;8.00;;
19255;SDS011;9762;52.490;13.410;2023-03-20T11:26:14;9.30;;;7.37;;
19255;SDS011;9762;52.490;13.410;2023-03-20T11:28:52;10.57;;;7.03;;
19255;SDS011;9762;52.490;13.410;2023-03-20T11:36:31;10.03;;;7.70;;
19255;SDS011;9762;52.490;13.410;2023-03-20T11:41:45;9.37;;;7.17;;
19255;SDS011;9762;52.490;13.410;2023-03-20T11:44:24;8.43;;;7.60;;
19255;SDS011;9762;52.490;13.410;2023-03-20T11:49:25;8.43;;;7.53;;
19255;SDS011;9762;52.490;13.410;2023-03-20T11:52:01;7.80;;;7.00;;
19255;SDS011;9762;52.490;13.410;2023-03-20T11:54:35;10.67;;;8.00;;
19255;SDS011;9762;52.490;13.410;2023-03-20T11:57:02;9.80;;;7.97;;
19255;SDS011;9762;52.490;13.410;2023-03-20T11:59:29;7.77;;;6.93;;
19255;SDS011;9762;52.490;13.410;2023-03-20T12:01:59;8.33;;;7.43;;
19255;SDS011;9762;52.490;13.410;2023-03-20T12:04:34;11.63;;;7.10;;
19255;SDS011;9762;52.490;13.410;2023-03-20T12:10:04;9.63;;;7.77;;
19255;SDS011;9762;52.490;13.410;2023-03-20T12:12:33;8.07;;;7.20;;
19255;SDS011;9762;52.490;13.410;2023-03-20T12:18:32;10.30;;;7.17;;
19255;SDS011;9762;52.490;13.410;2023-03-20T12:21:11;9.90;;;6.93;;
19255;SDS011;9762;52.490;13.410;2023-03-20T12:24:07;10.37;;;7.33;;
19255;SDS011;9762;52.490;13.410;2023-03-20T12:31:55;7.90;;;6.83;;
19255;SDS011;9762;52.490;13.410;2023-03-20T12:34:31;8.17;;;7.17;;
19255;SDS011;9762;52.490;13.410;2023-03-20T12:37:02;8.77;;;7.53;;
19255;SDS011;9762;52.490;13.410;2023-03-20T12:39:37;10.47;;;7.30;;
19255;SDS011;9762;52.490;13.410;2023-03-20T12:45:47;8.80;;;7.70;;
19255;SDS011;9762;52.490;13.410;2023-03-20T12:51:02;8.90;;;7.23;;
19255;SDS011;9762;52.490;13.410;2023-03-20T12:56:24;9.83;;;8.27;;
19255;SDS011;9762;52.490;13.410;2023-03-20T12:58:55;12.73;;;7.87;;
19255;SDS011;9762;52.490;13.410;2023-03-20T13:04:30;10.77;;;8.33;;
19255;SDS011;9762;52.490;13.410;2023-03-20T13:07:20;12.10;;;8.10;;
19255;SDS011;9762;52.490;13.410;2023-03-20T13:18:44;12.37;;;9.33;;
19255;SDS011;9762;52.490;13.410;2023-03-20T13:21:33;11.50;;;8.43;;
19255;SDS011;9762;52.490;13.410;2023-03-20T13:27:14;14.93;;;9.73;;
19255;SDS011;9762;52.490;13.410;2023-03-20T13:30:02;12.33;;;9.77;;
19255;SDS011;9762;52.490;13.410;2023-03-20T13:35:16;11.70;;;8.97;;
19255;SDS011;9762;52.490;13.410;2023-03-20T13:38:40;17.50;;;9.77;;
19255;SDS011;9762;52.490;13.410;2023-03-20T13:40:43;15.83;;;9.40;;
19255;SDS011;9762;52.490;13.410;2023-03-20T13:48:30;16.20;;;10.60;;
19255;SDS011;9762;52.490;13.410;2023-03-20T14:04:02;17.80;;;11.57;;
19255;SDS011;9762;52.490;13.410;2023-03-20T14:09:26;14.80;;;11.03;;
19255;SDS011;9762;52.490;13.410;2023-03-20T14:11:53;21.77;;;16.50;;
19255;SDS011;9762;52.490;13.410;2023-03-20T14:14:24;30.27;;;19.57;;
19255;SDS011;9762;52.490;13.410;2023-03-20T14:17:02;16.23;;;12.77;;
19255;SDS011;9762;52.490;13.410;2023-03-20T14:19:51;16.67;;;12.10;;
19255;SDS011;9762;52.490;13.410;2023-03-20T14:22:34;15.00;;;11.23;;
19255;SDS011;9762;52.490;13.410;2023-03-20T14:25:03;15.37;;;11.60;;
19255;SDS011;9762;52.490;13.410;2023-03-20T14:27:36;15.63;;;11.77;;
19255;SDS011;9762;52.490;13.410;2023-03-20T14:33:06;14.40;;;11.87;;
19255;SDS011;9762;52.490;13.410;2023-03-20T14:35:45;18.40;;;11.83;;
19255;SDS011;9762;52.490;13.410;2023-03-20T14:52:44;14.90;;;11.00;;
19255;SDS011;9762;52.490;13.410;2023-03-20T14:57:46;15.07;;;11.20;;
19255;SDS011;9762;52.490;13.410;2023-03-20T15:02:49;13.97;;;10.77;;
19255;SDS011;9762;52.490;13.410;2023-03-20T15:05:21;13.90;;;11.30;;
19255;SDS011;9762;52.490;13.410;2023-03-20T15:07:49;15.87;;;11.20;;
19255;SDS011;9762;52.490;13.410;2023-03-20T15:10:16;15.53;;;11.43;;
19255;SDS011;9762;52.490;13.410;2023-03-20T15:12:42;14.57;;;11.23;;
19255;SDS011;9762;52.490;13.410;2023-03-20T15:15:28;16.20;;;11.50;;
19255;SDS011;9762;52.490;13.410;2023-03-20T15:18:11;16.03;;;11.93;;
19255;SDS011;9762;52.490;13.410;2023-03-20T15:20:38;15.83;;;10.80;;
19255;SDS011;9762;52.490;13.410;2023-03-20T15:23:08;13.50;;;11.70;;
19255;SDS011;9762;52.490;13.410;2023-03-20T15:25:38;17.43;;;12.10;;
19255;SDS011;9762;52.490;13.410;2023-03-20T15:28:07;18.90;;;12.57;;
19255;SDS011;9762;52.490;13.410;2023-03-20T15:31:00;14.40;;;11.70;;
19255;SDS011;9762;52.490;13.410;2023-03-20T15:33:33;15.47;;;12.03;;
19255;SDS011;9762;52.490;13.410;2023-03-20T15:36:07;18.90;;;12.67;;
19255;SDS011;9762;52.490;13.410;2023-03-20T15:38:35;20.83;;;13.67;;
19255;SDS011;9762;52.490;13.410;2023-03-20T15:41:06;14.80;;;13.20;;
19255;SDS011;9762;52.490;13.410;2023-03-20T15:43:32;14.57;;;12.10;;
19255;SDS011;9762;52.490;13.410;2023-03-20T15:46:02;14.83;;;12.50;;
19255;SDS011;9762;52.490;13.410;2023-03-20T15:48:28;15.33;;;11.97;;
19255;SDS011;9762;52.490;13.410;2023-03-20T15:50:55;15.77;;;12.80;;
19255;SDS011;9762;52.490;13.410;2023-03-20T15:53:28;17.53;;;12.67;;
19255;SDS011;9762;52.490;13.410;2023-03-20T15:58:32;16.93;;;13.40;;
19255;SDS011;9762;52.490;13.410;2023-03-20T16:00:59;15.97;;;12.50;;
19255;SDS011;9762;52.490;13.410;2023-03-20T16:03:27;14.20;;;11.60;;
19255;SDS011;9762;52.490;13.410;2023-03-20T16:05:54;15.73;;;13.40;;
19255;SDS011;9762;52.490;13.410;2023-03-20T16:08:27;17.93;;;12.43;;
19255;SDS011;9762;52.490;13.410;2023-03-20T16:10:58;16.80;;;12.33;;
19255;SDS011;9762;52.490;13.410;2023-03-20T16:13:44;15.10;;;11.70;;
19255;SDS011;9762;52.490;13.410;2023-03-20T16:16:13;20.17;;;13.60;;
19255;SDS011;9762;52.490;13.410;2023-03-20T16:18:41;21.93;;;14.97;;
19255;SDS011;9762;52.490;13.410;2023-03-20T16:23:56;12.50;;;11.20;;
19255;SDS011;9762;52.490;13.410;2023-03-20T16:26:24;13.67;;;11.53;;
19255;SDS011;9762;52.490;13.410;2023-03-20T16:28:55;15.13;;;11.47;;
19255;SDS011;9762;52.490;13.410;2023-03-20T16:31:30;16.40;;;11.33;;
19255;SDS011;9762;52.490;13.410;2023-03-20T16:33:59;17.33;;;11.63;;
19255;SDS011;9762;52.490;13.410;2023-03-20T16:36:31;15.47;;;12.27;;
19255;SDS011;9762;52.490;13.410;2023-03-20T16:41:56;14.73;;;12.50;;
19255;SDS011;9762;52.490;13.410;2023-03-20T16:44:40;17.13;;;12.43;;
19255;SDS011;9762;52.490;13.410;2023-03-20T16:49:48;17.17;;;13.23;;
19255;SDS011;9762;52.490;13.410;2023-03-20T16:52:30;14.90;;;13.23;;
19255;SDS011;9762;52.490;13.410;2023-03-20T16:55:01;17.30;;;12.60;;
19255;SDS011;9762;52.490;13.410;2023-03-20T16:57:27;19.87;;;15.47;;
19255;SDS011;9762;52.490;13.410;2023-03-20T17:00:00;14.23;;;12.77;;
19255;SDS011;9762;52.490;13.410;2023-03-20T17:02:36;16.00;;;12.10;;
19255;SDS011;9762;52.490;13.410;2023-03-20T17:05:06;20.17;;;14.00;;
19255;SDS011;9762;52.490;13.410;2023-03-20T17:07:37;18.10;;;12.27;;
19255;SDS011;9762;52.490;13.410;2023-03-20T17:12:40;16.83;;;12.67;;
19255;SDS011;9762;52.490;13.410;2023-03-20T17:15:08;32.43;;;22.90;;
19255;SDS011;9762;52.490;13.410;2023-03-20T17:17:44;16.27;;;13.27;;
19255;SDS011;9762;52.490;13.410;2023-03-20T17:20:18;14.97;;;11.73;;
19255;SDS011;9762;52.490;13.410;2023-03-20T17:22:48;14.13;;;12.23;;
19255;SDS011;9762;52.490;13.410;2023-03-20T17:25:14;15.13;;;12.33;;
19255;SDS011;9762;52.490;13.410;2023-03-20T17:27:40;16.97;;;12.63;;
19255;SDS011;9762;52.490;13.410;2023-03-20T17:30:11;15.57;;;12.33;;
19255;SDS011;9762;52.490;13.410;2023-03-20T17:32:41;15.57;;;12.50;;
19255;SDS011;9762;52.490;13.410;2023-03-20T17:35:07;15.90;;;12.07;;
19255;SDS011;9762;52.490;13.410;2023-03-20T17:37:32;16.10;;;12.07;;
19255;SDS011;9762;52.490;13.410;2023-03-20T17:39:58;14.83;;;12.83;;
19255;SDS011;9762;52.490;13.410;2023-03-20T17:42:25;14.33;;;11.90;;
19255;SDS011;9762;52.490;13.410;2023-03-20T17:44:55;17.47;;;13.47;;
19255;SDS011;9762;52.490;13.410;2023-03-20T17:47:22;16.20;;;12.57;;
19255;SDS011;9762;52.490;13.410;2023-03-20T17:49:50;17.83;;;12.87;;